MSC Florentina — HPFH — position and weather

sailwx.info

Track history (hours):
 
Tides and Currents Weather Stations Pressure Air Temp Water Temp Dewpoint Dewpoint Depression Visibility Wind Speed Wind Dir Waves Ship Positions

MSC Florentina

Last reported at 2016-Sep-26 13:22 UTC. Time now 2016-Sep-26 15:39 UTC.
Position S 23°58' W 046°17'.

Length 300 m; draft 10.2 m.

Type: Ship (hazmat cat A). MMSI: 352870000.

Date/timePositionNaut miles runAvg speedWind from/ knotsBaromVisibWave heightAir tempDewpointWater temp
2016-Sep-26 13:22S 23°58' W 046°17'0 0.0
2016-Sep-26 11:28S 23°58' W 046°17'0 0.0
2016-Sep-26 08:10S 23°58' W 046°17'0 0.0
2016-Sep-26 02:04S 23°58' W 046°17'0 0.0
2016-Sep-26 01:22S 23°58' W 046°17'0 0.0
2016-Sep-26 00:25S 23°58' W 046°17'0 0.0
2016-Sep-25 21:31S 23°58' W 046°17'0 0.0
2016-Sep-25 17:28S 23°58' W 046°17'0 0.0
2016-Sep-25 16:31S 23°58' W 046°17'0 0.0
2016-Sep-25 15:22S 23°58' W 046°17'0 0.0
2016-Sep-25 14:31S 23°58' W 046°17'0 0.0
2016-Sep-25 12:25S 23°58' W 046°17'0 0.2
2016-Sep-25 11:33S 23°58' W 046°18'7 7.5
2016-Sep-25 10:33S 24°04' W 046°22'1211.8
2016-Sep-25 09:33S 24°15' W 046°16'4 1.7
2016-Sep-25 07:30S 24°13' W 046°13'0 0.0
2016-Sep-25 04:21S 24°13' W 046°13'0 0.0
2016-Sep-25 00:33S 24°13' W 046°13'0 0.0
2016-Sep-24 22:30S 24°13' W 046°13'0 0.0
2016-Sep-24 21:33S 24°13' W 046°13'8 4.0
2016-Sep-24 19:34S 24°15' W 046°05'  
Track history (hours):
 
Tides and Currents Weather Stations Pressure Air Temp Water Temp Dewpoint Dewpoint Depression Visibility Wind Speed Wind Dir Waves Ship Positions

MSC Florentina

Last reported at 2016-Sep-26 13:22 UTC. Time now 2016-Sep-26 15:39 UTC.
Position S 23°58' W 046°17'.

Length 300 m; draft 10.2 m.

Type: Ship (hazmat cat A). MMSI: 352870000.

Date/timePositionNaut miles runAvg speedWind from/ knotsBaromVisibWave heightAir tempDewpointWater temp
2016-Sep-26 13:22S 23°58' W 046°17'0 0.0
2016-Sep-26 11:28S 23°58' W 046°17'0 0.0
2016-Sep-26 08:10S 23°58' W 046°17'0 0.0
2016-Sep-26 02:04S 23°58' W 046°17'0 0.0
2016-Sep-26 01:22S 23°58' W 046°17'0 0.0
2016-Sep-26 00:25S 23°58' W 046°17'0 0.0
2016-Sep-25 21:31S 23°58' W 046°17'0 0.0
2016-Sep-25 17:28S 23°58' W 046°17'0 0.0
2016-Sep-25 16:31S 23°58' W 046°17'0 0.0
2016-Sep-25 15:22S 23°58' W 046°17'0 0.0
2016-Sep-25 14:31S 23°58' W 046°17'0 0.0
2016-Sep-25 12:25S 23°58' W 046°17'0 0.2
2016-Sep-25 11:33S 23°58' W 046°18'7 7.5
2016-Sep-25 10:33S 24°04' W 046°22'1211.8
2016-Sep-25 09:33S 24°15' W 046°16'4 1.7
2016-Sep-25 07:30S 24°13' W 046°13'0 0.0
2016-Sep-25 04:21S 24°13' W 046°13'0 0.0
2016-Sep-25 00:33S 24°13' W 046°13'0 0.0
2016-Sep-24 22:30S 24°13' W 046°13'0 0.0
2016-Sep-24 21:33S 24°13' W 046°13'8 4.0
2016-Sep-24 19:34S 24°15' W 046°05'  

Dump ship's entire track history